Time;durP1;ratioP1;P1;durP2;ratioP2;P2;SDS_P1;SDS_P2;PMS_P1;PMS_P2;Temp;Humidity;BMP_temperature;BMP_pressure;BME280_temperature;BME280_humidity;BME280_pressure;Samples;Min_cycle;Max_cycle;Signal;HPM_P1;HPM_P2
2022/01/30 00:00:36;;;;;;;6.30;1.10;;;6.80;99.90;;;;;;4442155;32;20081;-72
2022/01/30 00:03:02;;;;;;;0.75;0.75;;;6.80;99.90;;;;;;4442319;32;20116;-73
2022/01/30 00:05:28;;;;;;;1.95;1.15;;;6.80;99.90;;;;;;4444220;32;20151;-73
2022/01/30 00:07:54;;;;;;;1.98;1.20;;;6.70;99.90;;;;;;4442846;32;20109;-73
2022/01/30 00:10:19;;;;;;;2.10;1.30;;;6.70;99.90;;;;;;4443523;32;20060;-73
2022/01/30 00:12:50;;;;;;;11.75;2.87;;;6.60;99.90;;;;;;4440773;32;20098;-73
2022/01/30 00:15:17;;;;;;;;;;;6.70;99.90;;;;;;4443233;32;20073;-73
2022/01/30 00:17:50;;;;;;;0.30;0.30;;;6.70;99.90;;;;;;4442235;32;19975;-73
2022/01/30 00:20:22;;;;;;;0.28;0.28;;;6.60;99.90;;;;;;4442446;32;20426;-73
2022/01/30 00:22:55;;;;;;;0.30;0.30;;;6.60;99.90;;;;;;4441135;32;20090;-73
2022/01/30 00:25:32;;;;;;;6.03;1.65;;;6.60;99.90;;;;;;4442501;32;20101;-73
2022/01/30 00:28:05;;;;;;;0.40;0.40;;;6.60;99.90;;;;;;4443092;32;20156;-73
2022/01/30 00:30:34;;;;;;;0.90;0.90;;;6.70;99.90;;;;;;4442137;32;20162;-72
2022/01/30 00:33:01;;;;;;;0.93;0.77;;;6.70;99.90;;;;;;4440818;32;20696;-73
2022/01/30 00:35:27;;;;;;;0.70;0.70;;;6.70;99.90;;;;;;4441303;32;20159;-72
2022/01/30 00:37:53;;;;;;;0.30;0.30;;;6.70;99.90;;;;;;4442502;32;20122;-73
2022/01/30 00:40:19;;;;;;;1.98;1.12;;;6.60;99.90;;;;;;4442433;32;20101;-73
2022/01/30 00:42:44;;;;;;;0.75;0.70;;;6.60;99.90;;;;;;4441980;32;20479;-72
2022/01/30 00:45:10;;;;;;;1.55;1.20;;;6.60;99.90;;;;;;4444131;32;20120;-73
2022/01/30 00:47:35;;;;;;;0.60;0.60;;;6.50;99.90;;;;;;4442266;32;20073;-73
2022/01/30 00:50:01;;;;;;;0.43;0.43;;;6.50;99.90;;;;;;4442421;32;20115;-73
2022/01/30 00:52:26;;;;;;;0.40;0.40;;;6.40;99.90;;;;;;4441880;32;20077;-73
2022/01/30 00:54:52;;;;;;;0.30;0.30;;;6.30;99.90;;;;;;4440361;32;20081;-73
2022/01/30 00:57:17;;;;;;;0.98;0.65;;;6.30;99.90;;;;;;4441937;32;20123;-73
2022/01/30 00:59:43;;;;;;;0.70;0.70;;;6.30;99.90;;;;;;4440554;32;20470;-73
2022/01/30 01:02:08;;;;;;;0.50;0.50;;;6.30;99.90;;;;;;4439058;32;20097;-73
2022/01/30 01:04:34;;;;;;;19.90;1.17;;;6.40;99.90;;;;;;4441816;32;20069;-73
2022/01/30 01:06:59;;;;;;;0.30;0.30;;;6.40;99.90;;;;;;4442669;32;20378;-73
2022/01/30 01:09:33;;;;;;;1.00;1.00;;;6.40;99.90;;;;;;4441311;32;20076;-73
2022/01/30 01:13:11;;;;;;;0.30;0.30;;;6.40;99.90;;;;;;4442076;32;20065;-73
2022/01/30 01:20:57;;;;;;;0.30;0.30;;;6.40;99.90;;;;;;4439452;32;20517;-73
2022/01/30 01:23:38;;;;;;;1.05;0.95;;;6.60;99.90;;;;;;4439056;32;20442;-73
2022/01/30 01:25:46;;;;;;;2.37;1.15;;;6.60;99.90;;;;;;4440093;32;20077;-73
2022/01/30 01:28:11;;;;;;;0.50;0.50;;;6.60;99.90;;;;;;4443248;32;20101;-73
2022/01/30 01:30:37;;;;;;;3.17;1.25;;;6.60;99.90;;;;;;4440078;32;20528;-73
2022/01/30 01:33:03;;;;;;;0.32;0.32;;;6.70;99.90;;;;;;4441168;32;20057;-73
2022/01/30 01:35:29;;;;;;;4.70;0.70;;;6.80;99.90;;;;;;4441311;32;20078;-72
2022/01/30 01:37:55;;;;;;;11.98;0.62;;;6.70;99.90;;;;;;4441159;32;20423;-72
2022/01/30 01:40:21;;;;;;;0.40;0.40;;;6.80;99.90;;;;;;4442910;32;20081;-72
2022/01/30 01:42:47;;;;;;;1.75;0.73;;;6.70;99.90;;;;;;4442580;32;20072;-72
2022/01/30 01:45:19;;;;;;;0.30;0.30;;;6.70;99.90;;;;;;4443269;32;20124;-73
2022/01/30 01:47:44;;;;;;;3.72;1.70;;;6.70;99.90;;;;;;4442024;32;20069;-72
2022/01/30 01:50:17;;;;;;;1.95;1.12;;;6.70;99.90;;;;;;4442791;32;20137;-72
2022/01/30 01:52:43;;;;;;;0.47;0.47;;;6.70;99.90;;;;;;4441762;32;20068;-71
2022/01/30 01:55:08;;;;;;;4.00;1.23;;;6.80;99.90;;;;;;4442436;32;20504;-71
2022/01/30 01:57:34;;;;;;;6.28;1.33;;;6.80;99.90;;;;;;4442102;32;20156;-71
2022/01/30 02:00:00;;;;;;;1.30;0.88;;;6.80;99.90;;;;;;4440284;32;20082;-71
2022/01/30 02:02:27;;;;;;;0.75;0.75;;;6.80;99.90;;;;;;4441227;32;20081;-72
2022/01/30 02:04:57;;;;;;;2.28;1.33;;;6.80;99.90;;;;;;4442535;32;20081;-72
2022/01/30 02:10:18;;;;;;;3.03;0.68;;;6.90;99.90;;;;;;4440433;32;20422;-72
2022/01/30 02:12:49;;;;;;;1.48;0.93;;;6.90;99.90;;;;;;4441145;32;20073;-71
2022/01/30 02:15:44;;;;;;;5.97;1.77;;;6.90;99.90;;;;;;4441521;32;20833;-72
2022/01/30 02:24:08;;;;;;;3.10;0.88;;;7.10;99.90;;;;;;4438392;32;20061;-71
2022/01/30 02:26:17;;;;;;;0.30;0.30;;;7.10;99.90;;;;;;4438532;32;20477;-72
2022/01/30 02:28:43;;;;;;;0.22;0.22;;;7.00;99.90;;;;;;4439942;32;20119;-72
2022/01/30 02:31:12;;;;;;;1.05;0.98;;;7.00;99.90;;;;;;4441194;32;20512;-72
2022/01/30 02:33:40;;;;;;;0.55;0.50;;;7.00;99.90;;;;;;4441943;32;20127;-72
2022/01/30 02:36:06;;;;;;;11.93;1.33;;;6.90;99.90;;;;;;4441894;32;20537;-71
2022/01/30 02:38:33;;;;;;;0.35;0.35;;;6.90;99.90;;;;;;4440766;32;20109;-72
2022/01/30 02:40:59;;;;;;;0.30;0.30;;;6.90;99.90;;;;;;4439851;32;20100;-72
2022/01/30 02:43:30;;;;;;;0.68;0.68;;;6.80;99.90;;;;;;4438960;32;20080;-72
2022/01/30 02:46:06;;;;;;;1.55;1.25;;;6.80;99.90;;;;;;4439635;32;20117;-73
2022/01/30 02:48:50;;;;;;;0.68;0.50;;;6.80;99.90;;;;;;4439667;32;20065;-72
2022/01/30 02:51:18;;;;;;;0.80;0.80;;;6.80;99.90;;;;;;4440521;32;20096;-72
2022/01/30 02:53:47;;;;;;;0.25;0.25;;;6.70;99.90;;;;;;4439801;32;20088;-72
2022/01/30 02:56:12;;;;;;;0.30;0.30;;;6.70;99.90;;;;;;4439619;32;20086;-72
2022/01/30 02:58:38;;;;;;;0.62;0.62;;;6.80;99.90;;;;;;4441406;32;20089;-73
2022/01/30 03:01:04;;;;;;;9.20;0.85;;;6.70;99.90;;;;;;4438370;32;20434;-72
2022/01/30 03:03:29;;;;;;;0.73;0.73;;;6.70;99.90;;;;;;4437916;32;20081;-72
2022/01/30 03:05:54;;;;;;;3.50;1.77;;;6.70;99.90;;;;;;4440021;32;20065;-72
2022/01/30 03:08:20;;;;;;;7.68;2.05;;;6.70;99.90;;;;;;4441649;32;20077;-72
2022/01/30 03:10:45;;;;;;;2.83;1.80;;;6.80;99.90;;;;;;4441531;32;20139;-72
2022/01/30 03:13:11;;;;;;;6.78;1.20;;;6.70;99.90;;;;;;4440665;32;20093;-72
2022/01/30 03:15:36;;;;;;;1.83;1.40;;;6.70;99.90;;;;;;4440334;32;20553;-72
2022/01/30 03:18:02;;;;;;;1.02;1.02;;;6.70;99.90;;;;;;4440820;32;20123;-73
2022/01/30 03:20:28;;;;;;;1.17;1.08;;;6.70;99.90;;;;;;4439957;32;20569;-72
2022/01/30 03:22:53;;;;;;;0.50;0.50;;;6.60;99.90;;;;;;4440626;32;20060;-74
2022/01/30 03:25:19;;;;;;;1.55;1.00;;;6.60;99.90;;;;;;4440762;32;20108;-71
2022/01/30 03:27:51;;;;;;;0.30;0.30;;;6.60;99.90;;;;;;4439188;32;20069;-71
2022/01/30 03:30:24;;;;;;;25.12;1.02;;;6.50;99.90;;;;;;4441269;32;20525;-71
2022/01/30 03:32:49;;;;;;;0.50;0.50;;;6.50;99.90;;;;;;4439591;32;20120;-72
2022/01/30 03:35:15;;;;;;;1.65;1.42;;;6.40;99.90;;;;;;4440972;32;20086;-72
2022/01/30 03:37:40;;;;;;;0.50;0.50;;;6.40;99.90;;;;;;4441143;32;20081;-72
2022/01/30 03:40:06;;;;;;;0.65;0.60;;;6.40;99.90;;;;;;4440973;32;20069;-74
2022/01/30 03:42:32;;;;;;;0.75;0.55;;;6.40;99.90;;;;;;4440574;32;20102;-73
2022/01/30 03:44:57;;;;;;;0.70;0.70;;;6.30;99.90;;;;;;4441194;32;20061;-72
2022/01/30 03:47:24;;;;;;;0.35;0.35;;;6.30;99.90;;;;;;4438853;32;20808;-72
2022/01/30 03:49:50;;;;;;;0.50;0.50;;;6.30;99.90;;;;;;4439545;32;20134;-72
2022/01/30 03:52:16;;;;;;;3.08;1.52;;;6.30;99.90;;;;;;4440004;32;20065;-72
2022/01/30 03:54:42;;;;;;;0.80;0.80;;;6.20;99.90;;;;;;4439021;32;20117;-71
2022/01/30 03:57:07;;;;;;;5.68;1.85;;;6.30;99.90;;;;;;4439448;32;20061;-71
2022/01/30 03:59:33;;;;;;;9.10;2.67;;;6.30;99.90;;;;;;4444375;32;20077;-72
2022/01/30 04:01:59;;;;;;;2.55;1.00;;;6.30;99.90;;;;;;4444208;32;20060;-71
2022/01/30 04:04:24;;;;;;;0.52;0.52;;;6.30;99.90;;;;;;4442304;32;20069;-72
2022/01/30 04:06:50;;;;;;;0.40;0.40;;;6.30;99.90;;;;;;4443866;32;20061;-71
2022/01/30 04:09:16;;;;;;;0.40;0.40;;;6.30;99.90;;;;;;4443579;32;20505;-72
2022/01/30 04:11:41;;;;;;;0.40;0.40;;;6.20;99.90;;;;;;4443351;32;20422;-71
2022/01/30 04:14:07;;;;;;;1.25;1.10;;;6.10;99.90;;;;;;4442794;32;20085;-72
2022/01/30 04:16:33;;;;;;;1.65;0.88;;;6.10;99.90;;;;;;4443346;32;20069;-72
2022/01/30 04:18:59;;;;;;;7.62;1.12;;;6.00;99.90;;;;;;4441563;32;20509;-73
2022/01/30 04:21:24;;;;;;;4.80;2.65;;;6.00;99.90;;;;;;4442859;32;20528;-72
2022/01/30 04:23:50;;;;;;;3.60;1.15;;;6.10;99.90;;;;;;4441958;32;20073;-73
2022/01/30 04:26:15;;;;;;;0.47;0.47;;;6.20;99.90;;;;;;4442008;32;20077;-73
2022/01/30 04:28:41;;;;;;;0.93;0.75;;;6.20;99.90;;;;;;4442549;32;20072;-71
2022/01/30 04:31:07;;;;;;;0.55;0.55;;;6.20;99.90;;;;;;4443384;32;20470;-72
2022/01/30 04:33:33;;;;;;;1.00;0.80;;;6.20;99.90;;;;;;4440705;32;84369;-71
2022/01/30 04:36:04;;;;;;;17.00;1.48;;;6.20;99.90;;;;;;4438961;32;20138;-71
2022/01/30 04:38:40;;;;;;;1.87;0.60;;;6.20;99.90;;;;;;4441567;32;20121;-71
2022/01/30 04:52:17;;;;;;;8.48;1.10;;;5.90;99.90;;;;;;4441244;32;20615;-71
2022/01/30 04:55:27;;;;;;;0.28;0.28;;;5.80;99.90;;;;;;4438829;32;20132;-71
2022/01/30 04:57:40;;;;;;;6.60;1.15;;;5.80;99.90;;;;;;4440203;32;20137;-71
2022/01/30 05:02:48;;;;;;;0.50;0.50;;;5.70;99.90;;;;;;4440597;32;20087;-72
2022/01/30 05:07:46;;;;;;;0.40;0.40;;;5.60;99.90;;;;;;4441439;32;20120;-71
2022/01/30 05:10:12;;;;;;;0.30;0.30;;;5.60;99.90;;;;;;4442533;32;20465;-72
2022/01/30 05:12:46;;;;;;;1.12;1.02;;;5.60;99.90;;;;;;4442156;32;20061;-71
2022/01/30 05:15:13;;;;;;;3.50;1.10;;;5.60;99.90;;;;;;4441743;32;20064;-72
2022/01/30 05:17:39;;;;;;;0.40;0.40;;;5.60;99.90;;;;;;4442704;32;20533;-72
2022/01/30 05:20:05;;;;;;;0.47;0.47;;;5.70;99.90;;;;;;4441033;32;20062;-72
2022/01/30 05:22:31;;;;;;;3.40;1.15;;;5.80;99.90;;;;;;4441744;32;20069;-72
2022/01/30 05:24:56;;;;;;;0.30;0.30;;;5.80;99.90;;;;;;4442307;32;20117;-72
2022/01/30 05:27:22;;;;;;;4.95;0.80;;;5.80;99.90;;;;;;4442100;32;20496;-72
2022/01/30 05:29:48;;;;;;;0.45;0.45;;;5.80;99.90;;;;;;4442704;32;20061;-72
2022/01/30 05:32:14;;;;;;;1.70;1.58;;;5.90;99.90;;;;;;4441176;32;20155;-72
2022/01/30 05:34:39;;;;;;;0.40;0.40;;;5.90;99.90;;;;;;4441472;32;20139;-72
2022/01/30 05:37:08;;;;;;;1.10;0.90;;;5.90;99.90;;;;;;4440821;32;20105;-72
2022/01/30 05:39:34;;;;;;;1.42;1.33;;;5.90;99.90;;;;;;4442168;32;21170;-72
2022/01/30 05:42:00;;;;;;;6.65;2.17;;;5.90;99.90;;;;;;4443143;32;20085;-73
2022/01/30 05:44:40;;;;;;;0.40;0.40;;;5.90;99.90;;;;;;4442358;32;20442;-71
2022/01/30 05:47:10;;;;;;;1.08;0.88;;;5.90;99.90;;;;;;4442717;32;20131;-72
2022/01/30 05:49:37;;;;;;;2.30;0.77;;;6.00;99.90;;;;;;4441473;32;20057;-71
2022/01/30 05:52:04;;;;;;;3.00;1.17;;;6.00;99.90;;;;;;4442291;32;20073;-72
2022/01/30 05:54:29;;;;;;;0.43;0.43;;;6.00;99.90;;;;;;4442223;32;20092;-72
2022/01/30 05:56:55;;;;;;;3.15;1.12;;;6.00;99.90;;;;;;4441840;32;20620;-72
2022/01/30 05:59:20;;;;;;;0.85;0.80;;;6.00;99.90;;;;;;4440717;32;20065;-71
2022/01/30 06:01:46;;;;;;;0.40;0.40;;;6.00;99.90;;;;;;4440973;32;20085;-72
2022/01/30 06:04:11;;;;;;;0.30;0.30;;;6.10;99.90;;;;;;4442647;32;20529;-71
2022/01/30 06:06:37;;;;;;;0.30;0.30;;;6.10;99.90;;;;;;4441619;32;20060;-73
2022/01/30 06:09:18;;;;;;;0.85;0.85;;;6.00;99.90;;;;;;4441002;32;20143;-72
2022/01/30 06:11:44;;;;;;;0.62;0.60;;;6.10;99.90;;;;;;4439301;32;20065;-72
2022/01/30 06:14:10;;;;;;;1.42;1.23;;;6.10;99.90;;;;;;4441441;32;20155;-72
2022/01/30 06:16:36;;;;;;;0.30;0.30;;;6.10;99.90;;;;;;4442257;32;20089;-72
2022/01/30 06:19:01;;;;;;;0.30;0.30;;;6.10;99.90;;;;;;4440188;32;20116;-73
2022/01/30 06:21:28;;;;;;;2.67;1.45;;;6.10;99.90;;;;;;4440981;32;20573;-73
2022/01/30 06:23:54;;;;;;;0.52;0.45;;;6.10;99.90;;;;;;4439375;32;20151;-73
2022/01/30 06:26:20;;;;;;;0.65;0.65;;;6.10;99.90;;;;;;4440047;32;20088;-73
2022/01/30 06:28:45;;;;;;;0.50;0.50;;;6.10;99.90;;;;;;4441143;32;20057;-72
2022/01/30 06:31:11;;;;;;;2.03;1.65;;;6.20;99.90;;;;;;4441312;32;20085;-73
2022/01/30 06:33:36;;;;;;;13.77;1.35;;;6.10;99.90;;;;;;4442349;32;20105;-73
2022/01/30 06:36:02;;;;;;;1.60;0.80;;;6.10;99.90;;;;;;4440670;32;20068;-72
2022/01/30 06:38:27;;;;;;;0.77;0.77;;;6.10;99.90;;;;;;4440443;32;20521;-72
2022/01/30 06:40:53;;;;;;;3.42;2.08;;;6.10;99.90;;;;;;4440760;32;20427;-72
2022/01/30 06:43:18;;;;;;;1.35;1.25;;;6.10;99.90;;;;;;4442359;32;20089;-72
2022/01/30 06:45:44;;;;;;;0.73;0.70;;;6.00;99.90;;;;;;4441306;32;20084;-72
2022/01/30 06:48:10;;;;;;;1.00;0.98;;;6.00;99.90;;;;;;4440231;32;20081;-72
2022/01/30 06:50:35;;;;;;;0.57;0.57;;;6.00;99.90;;;;;;4441457;32;20126;-72
2022/01/30 06:53:01;;;;;;;3.30;2.45;;;6.00;99.90;;;;;;4438705;32;20080;-72
2022/01/30 06:55:27;;;;;;;2.17;0.85;;;6.00;99.90;;;;;;4438139;32;20077;-72
2022/01/30 06:57:52;;;;;;;21.17;1.70;;;6.10;99.90;;;;;;4440914;32;20081;-73
2022/01/30 07:00:18;;;;;;;0.77;0.77;;;6.10;99.90;;;;;;4440544;32;20085;-72
2022/01/30 07:02:43;;;;;;;0.62;0.62;;;6.20;99.90;;;;;;4441024;32;20061;-72
2022/01/30 07:05:09;;;;;;;0.30;0.30;;;6.20;99.90;;;;;;4441147;32;20081;-72
2022/01/30 07:07:35;;;;;;;0.65;0.50;;;6.20;99.90;;;;;;4440981;32;20061;-72
2022/01/30 07:10:01;;;;;;;0.50;0.50;;;6.30;99.90;;;;;;4440461;32;20061;-72
2022/01/30 07:12:26;;;;;;;2.35;1.20;;;6.30;99.90;;;;;;4441142;32;20061;-71
2022/01/30 07:14:52;;;;;;;0.20;0.20;;;6.40;99.90;;;;;;4442121;32;20073;-73
2022/01/30 07:17:17;;;;;;;0.62;0.50;;;6.40;99.90;;;;;;4441668;32;20877;-72
2022/01/30 07:19:43;;;;;;;1.67;0.62;;;6.40;99.90;;;;;;4443067;32;20064;-72
2022/01/30 07:22:09;;;;;;;3.25;1.25;;;6.40;99.90;;;;;;4441128;32;20061;-71
2022/01/30 07:24:34;;;;;;;1.23;0.82;;;6.40;99.90;;;;;;4440619;32;20069;-71
2022/01/30 07:27:00;;;;;;;0.50;0.50;;;6.40;99.90;;;;;;4440197;32;20152;-72
2022/01/30 07:29:25;;;;;;;31.25;1.27;;;6.40;99.90;;;;;;4440831;32;20147;-72
2022/01/30 07:31:51;;;;;;;23.60;0.77;;;6.50;99.90;;;;;;4442571;32;20077;-71
2022/01/30 07:34:16;;;;;;;1.45;0.60;;;6.50;99.90;;;;;;4444353;32;20069;-71
2022/01/30 07:36:43;;;;;;;0.82;0.82;;;6.50;99.90;;;;;;4443197;32;20065;-73
2022/01/30 07:39:12;;;;;;;1.00;0.95;;;6.60;99.90;;;;;;4442317;32;20081;-72
2022/01/30 07:41:37;;;;;;;1.08;1.00;;;6.60;99.90;;;;;;4443293;32;20122;-72
2022/01/30 07:44:04;;;;;;;0.43;0.43;;;6.60;99.90;;;;;;4443685;32;20068;-72
2022/01/30 07:46:30;;;;;;;0.50;0.50;;;6.60;99.90;;;;;;4443607;32;20068;-71
2022/01/30 07:48:55;;;;;;;23.38;1.58;;;6.60;99.90;;;;;;4443357;32;20499;-72
2022/01/30 07:51:21;;;;;;;14.77;1.98;;;6.60;99.90;;;;;;4444182;32;20077;-71
2022/01/30 07:53:46;;;;;;;0.47;0.47;;;6.60;99.90;;;;;;4442687;32;20068;-71
2022/01/30 07:56:12;;;;;;;1.02;0.93;;;6.60;99.90;;;;;;4441482;32;20555;-72
2022/01/30 07:58:38;;;;;;;0.73;0.73;;;6.60;99.90;;;;;;4442971;32;20090;-71
2022/01/30 08:01:04;;;;;;;1.10;1.00;;;6.60;99.90;;;;;;4441818;32;20123;-72
2022/01/30 08:03:30;;;;;;;0.80;0.80;;;6.60;99.90;;;;;;4443955;32;20089;-72
2022/01/30 08:05:55;;;;;;;0.52;0.52;;;6.60;99.90;;;;;;4443592;32;20076;-73
2022/01/30 08:08:21;;;;;;;2.55;1.27;;;6.50;99.90;;;;;;4440700;32;20085;-72
2022/01/30 08:10:46;;;;;;;0.50;0.50;;;6.60;99.90;;;;;;4443017;32;20550;-73
2022/01/30 08:13:14;;;;;;;1.05;0.98;;;6.60;99.90;;;;;;4441311;32;20458;-72
2022/01/30 08:15:39;;;;;;;0.65;0.65;;;6.60;99.90;;;;;;4443458;32;20136;-71
2022/01/30 08:18:05;;;;;;;0.40;0.40;;;6.60;99.90;;;;;;4442578;32;20093;-71
2022/01/30 08:20:30;;;;;;;0.40;0.40;;;6.60;99.90;;;;;;4444136;32;20394;-72
2022/01/30 08:22:56;;;;;;;0.57;0.55;;;6.60;99.90;;;;;;4442905;32;20060;-72
2022/01/30 08:25:24;;;;;;;0.30;0.30;;;6.60;99.90;;;;;;4442408;32;20073;-71
2022/01/30 08:27:51;;;;;;;0.40;0.40;;;6.60;99.90;;;;;;4442988;32;20093;-72
2022/01/30 08:30:17;;;;;;;0.82;0.82;;;6.60;99.90;;;;;;4443815;32;20064;-72
2022/01/30 08:32:46;;;;;;;2.37;1.12;;;6.60;99.90;;;;;;4442197;32;20168;-71
2022/01/30 08:35:13;;;;;;;1.23;1.12;;;6.60;99.90;;;;;;4442393;32;20132;-72
2022/01/30 08:37:39;;;;;;;2.53;0.98;;;6.60;99.90;;;;;;4440098;32;20105;-72
2022/01/30 08:40:07;;;;;;;0.68;0.68;;;6.60;99.90;;;;;;4442618;32;20073;-71
2022/01/30 08:42:33;;;;;;;0.73;0.73;;;6.60;99.90;;;;;;4441410;32;20077;-72
2022/01/30 08:44:58;;;;;;;6.37;2.08;;;6.60;99.90;;;;;;4443002;32;20148;-71
2022/01/30 08:47:25;;;;;;;0.30;0.30;;;6.60;99.90;;;;;;4443131;32;20549;-71
2022/01/30 08:49:50;;;;;;;1.90;0.93;;;6.60;99.90;;;;;;4442748;32;20061;-72
2022/01/30 08:52:19;;;;;;;0.65;0.65;;;6.60;99.90;;;;;;4442494;32;20516;-71
2022/01/30 08:54:45;;;;;;;0.93;0.82;;;6.60;99.90;;;;;;4441844;32;20152;-72
2022/01/30 08:57:10;;;;;;;8.07;1.58;;;6.60;99.90;;;;;;4441702;32;20089;-72
2022/01/30 08:59:36;;;;;;;1.00;0.70;;;6.60;99.90;;;;;;4443464;32;20061;-72
2022/01/30 09:02:01;;;;;;;1.45;0.82;;;6.60;99.90;;;;;;4443526;32;20449;-72
2022/01/30 09:04:27;;;;;;;0.62;0.62;;;6.60;99.90;;;;;;4442619;32;20065;-72
2022/01/30 09:06:52;;;;;;;11.15;1.85;;;6.60;99.90;;;;;;4442432;32;20073;-72
2022/01/30 09:09:18;;;;;;;9.57;1.00;;;6.60;99.90;;;;;;4442096;32;20100;-72
2022/01/30 09:11:43;;;;;;;1.45;0.90;;;6.60;99.90;;;;;;4441812;32;20615;-72
2022/01/30 09:14:09;;;;;;;6.72;1.92;;;6.60;99.90;;;;;;4441233;32;20129;-72
2022/01/30 09:16:35;;;;;;;0.52;0.52;;;6.60;99.90;;;;;;4442407;32;20644;-72
2022/01/30 09:19:00;;;;;;;0.85;0.77;;;6.60;99.90;;;;;;4443416;32;20379;-72
2022/01/30 09:21:28;;;;;;;1.10;1.00;;;6.60;99.90;;;;;;4442979;32;20089;-73
2022/01/30 09:23:54;;;;;;;2.60;2.10;;;6.60;99.90;;;;;;4442473;32;20061;-72
2022/01/30 09:26:20;;;;;;;0.77;0.77;;;6.70;99.90;;;;;;4440967;32;20528;-72
2022/01/30 09:28:46;;;;;;;1.00;0.85;;;6.70;99.90;;;;;;4440788;32;20077;-73
2022/01/30 09:31:11;;;;;;;17.55;1.85;;;6.70;99.90;;;;;;4442517;32;20088;-72
2022/01/30 09:33:39;;;;;;;0.62;0.62;;;6.70;99.90;;;;;;4440742;32;20068;-72
2022/01/30 09:36:05;;;;;;;0.55;0.55;;;6.80;99.90;;;;;;4441728;32;20069;-72
2022/01/30 09:38:30;;;;;;;1.42;1.02;;;6.80;99.90;;;;;;4442009;32;20081;-73
2022/01/30 09:40:56;;;;;;;2.83;1.40;;;6.80;99.90;;;;;;4442775;32;20077;-72
2022/01/30 09:43:22;;;;;;;7.30;2.47;;;6.80;99.90;;;;;;4442488;32;20085;-72
2022/01/30 09:45:49;;;;;;;2.10;0.45;;;6.90;99.90;;;;;;4440994;32;20148;-72
2022/01/30 09:48:17;;;;;;;0.30;0.30;;;6.90;99.90;;;;;;4440215;32;20068;-72
2022/01/30 09:50:43;;;;;;;0.28;0.28;;;7.00;99.90;;;;;;4442701;32;20060;-72
2022/01/30 09:53:08;;;;;;;0.50;0.50;;;7.00;99.90;;;;;;4440453;32;20097;-72
2022/01/30 09:55:34;;;;;;;2.30;0.82;;;7.00;99.90;;;;;;4440476;32;20061;-72
2022/01/30 09:57:59;;;;;;;3.72;0.60;;;7.10;99.90;;;;;;4441467;32;20561;-72
2022/01/30 10:00:25;;;;;;;1.25;0.68;;;7.10;99.90;;;;;;4441918;32;20064;-72
2022/01/30 10:02:50;;;;;;;1.30;0.68;;;7.10;99.90;;;;;;4441666;32;20080;-72
2022/01/30 10:05:17;;;;;;;6.60;1.30;;;7.10;99.90;;;;;;4440869;32;20069;-72
2022/01/30 10:07:49;;;;;;;1.65;0.75;;;7.00;99.90;;;;;;4442111;32;20068;-72
2022/01/30 10:10:17;;;;;;;3.17;1.35;;;7.00;99.90;;;;;;4442558;32;20072;-71
2022/01/30 10:13:01;;;;;;;2.10;0.80;;;7.00;99.90;;;;;;4442226;32;20135;-72
2022/01/30 10:15:27;;;;;;;1.95;0.90;;;7.10;99.90;;;;;;4442285;32;20164;-73
2022/01/30 10:17:53;;;;;;;0.47;0.47;;;7.10;99.90;;;;;;4441683;32;20521;-73
2022/01/30 10:20:20;;;;;;;5.00;1.45;;;7.00;99.90;;;;;;4439905;32;20072;-73
2022/01/30 10:23:07;;;;;;;2.92;0.90;;;7.00;99.90;;;;;;4438994;32;20077;-73
2022/01/30 10:25:39;;;;;;;12.93;0.57;;;7.00;99.90;;;;;;4440210;32;20098;-72
2022/01/30 10:28:11;;;;;;;0.52;0.52;;;7.00;99.90;;;;;;4439841;32;20117;-73
2022/01/30 10:30:49;;;;;;;14.75;1.45;;;7.00;99.90;;;;;;4439420;32;20075;-73
2022/01/30 10:33:16;;;;;;;0.73;0.73;;;7.00;99.90;;;;;;4440691;32;20069;-72
2022/01/30 10:35:58;;;;;;;0.57;0.57;;;6.90;99.90;;;;;;4440520;32;20089;-74
2022/01/30 10:38:29;;;;;;;9.90;0.93;;;7.00;99.90;;;;;;4439396;32;20096;-72
2022/01/30 10:41:09;;;;;;;1.40;0.70;;;6.90;99.90;;;;;;4436561;32;20475;-72
2022/01/30 10:43:56;;;;;;;1.27;1.05;;;6.90;99.90;;;;;;4441241;32;20077;-72
2022/01/30 10:46:25;;;;;;;1.45;0.77;;;6.90;99.90;;;;;;4440216;32;20301;-72
2022/01/30 10:49:00;;;;;;;3.55;1.45;;;6.90;99.90;;;;;;4440843;32;20077;-72
2022/01/30 10:51:29;;;;;;;1.55;0.82;;;6.90;99.90;;;;;;4443790;32;20088;-72
2022/01/30 10:53:57;;;;;;;0.50;0.43;;;6.90;99.90;;;;;;4443767;32;20065;-74
2022/01/30 10:56:27;;;;;;;0.50;0.50;;;6.90;99.90;;;;;;4442078;32;20158;-72
2022/01/30 10:59:11;;;;;;;0.47;0.47;;;6.90;99.90;;;;;;4440877;32;20101;-71
2022/01/30 11:01:41;;;;;;;0.73;0.73;;;7.00;99.90;;;;;;4440418;32;20070;-71
2022/01/30 11:04:06;;;;;;;3.05;1.30;;;7.00;99.90;;;;;;4440602;32;20061;-71
2022/01/30 11:06:38;;;;;;;2.72;1.30;;;7.00;99.90;;;;;;4443086;32;20081;-72
2022/01/30 11:09:11;;;;;;;3.97;1.80;;;7.10;99.90;;;;;;4442739;32;20073;-70
2022/01/30 11:11:42;;;;;;;15.40;1.17;;;7.10;99.90;;;;;;4444770;32;20119;-70
2022/01/30 11:17:36;;;;;;;0.85;0.82;;;7.10;99.90;;;;;;4443424;32;20124;-70
2022/01/30 11:19:23;;;;;;;0.60;0.60;;;7.10;99.90;;;;;;4442860;32;20142;-69
2022/01/30 11:21:51;;;;;;;4.95;1.58;;;7.00;99.90;;;;;;4444187;32;20452;-69
2022/01/30 11:24:19;;;;;;;0.37;0.37;;;7.10;99.90;;;;;;4442739;32;20056;-70
2022/01/30 11:26:46;;;;;;;0.35;0.35;;;7.10;99.90;;;;;;4443111;32;20061;-70
2022/01/30 11:29:15;;;;;;;1.92;1.12;;;7.20;99.90;;;;;;4445849;32;20114;-71
2022/01/30 11:31:41;;;;;;;0.35;0.35;;;7.10;99.90;;;;;;4444299;32;20517;-69
2022/01/30 11:34:07;;;;;;;8.95;1.73;;;7.10;99.90;;;;;;4443382;32;20508;-70
2022/01/30 11:36:34;;;;;;;13.95;3.33;;;7.10;99.90;;;;;;4444525;32;20093;-70
2022/01/30 11:39:00;;;;;;;1.87;1.73;;;7.20;99.90;;;;;;4442972;32;20081;-70
2022/01/30 11:41:30;;;;;;;1.85;1.35;;;7.10;99.90;;;;;;4443324;32;20069;-70
2022/01/30 11:44:20;;;;;;;3.65;0.57;;;7.10;99.90;;;;;;4443400;32;20119;-70
2022/01/30 11:46:58;;;;;;;0.43;0.43;;;7.10;99.90;;;;;;4442877;32;20069;-70
2022/01/30 11:49:43;;;;;;;0.93;0.90;;;7.20;99.90;;;;;;4440829;32;20592;-70
2022/01/30 11:52:11;;;;;;;4.93;2.03;;;7.20;99.90;;;;;;4441179;32;20193;-69
2022/01/30 11:54:40;;;;;;;0.80;0.73;;;7.20;99.90;;;;;;4442720;32;20085;-69
2022/01/30 11:57:27;;;;;;;0.32;0.32;;;7.30;99.90;;;;;;4442257;32;20061;-69
2022/01/30 11:59:54;;;;;;;2.10;1.33;;;7.30;99.90;;;;;;4441826;32;20073;-69
2022/01/30 12:02:36;;;;;;;1.08;0.85;;;7.30;99.90;;;;;;4442731;32;20065;-70
2022/01/30 12:05:07;;;;;;;4.40;2.47;;;7.30;99.90;;;;;;4442546;32;20416;-69
2022/01/30 12:07:45;;;;;;;6.12;1.35;;;7.30;99.90;;;;;;4442425;32;20815;-71
2022/01/30 12:10:29;;;;;;;1.67;1.48;;;7.30;99.90;;;;;;4443019;32;20085;-71
2022/01/30 12:12:57;;;;;;;3.55;1.42;;;7.40;99.90;;;;;;4438243;32;20101;-69
2022/01/30 12:15:43;;;;;;;7.93;1.98;;;7.40;99.90;;;;;;4444078;32;20089;-70
2022/01/30 12:18:11;;;;;;;0.93;0.93;;;7.40;99.90;;;;;;4441248;32;20112;-70
2022/01/30 12:20:59;;;;;;;1.48;1.25;;;7.40;99.90;;;;;;4442095;32;20121;-70
2022/01/30 12:23:26;;;;;;;1.98;1.10;;;7.50;99.90;;;;;;4440294;32;20068;-70
2022/01/30 12:25:54;;;;;;;0.62;0.62;;;7.60;99.90;;;;;;4442856;32;20077;-69
2022/01/30 12:28:38;;;;;;;1.70;0.93;;;7.50;99.90;;;;;;4441699;32;20120;-70
2022/01/30 12:31:23;;;;;;;3.55;1.75;;;7.50;99.90;;;;;;4443477;32;20069;-70
2022/01/30 12:33:57;;;;;;;6.68;1.85;;;7.50;99.90;;;;;;4442555;32;20065;-70
2022/01/30 12:36:23;;;;;;;0.88;0.55;;;7.50;99.90;;;;;;4443153;32;20061;-70
2022/01/30 12:38:53;;;;;;;11.35;3.42;;;7.50;99.90;;;;;;4442487;32;20123;-69
2022/01/30 12:41:21;;;;;;;1.85;1.35;;;7.40;99.90;;;;;;4442150;32;20085;-69
2022/01/30 12:43:51;;;;;;;5.50;1.15;;;7.40;99.90;;;;;;4442963;32;20057;-69
2022/01/30 12:46:17;;;;;;;1.02;0.85;;;7.40;99.90;;;;;;4443180;32;20068;-70
2022/01/30 12:48:57;;;;;;;2.90;0.93;;;7.40;99.90;;;;;;4443824;32;20099;-69
2022/01/30 12:51:23;;;;;;;0.40;0.40;;;7.50;99.90;;;;;;4442706;32;20089;-70
2022/01/30 12:53:52;;;;;;;3.20;0.60;;;7.50;99.90;;;;;;4443149;32;20084;-70
2022/01/30 12:56:17;;;;;;;1.15;0.80;;;7.80;99.90;;;;;;4439208;32;20193;-70
2022/01/30 12:58:47;;;;;;;5.78;2.05;;;7.90;99.90;;;;;;4441278;32;20107;-70
2022/01/30 13:01:14;;;;;;;1.20;1.10;;;8.00;99.90;;;;;;4441249;32;20127;-70
2022/01/30 13:03:41;;;;;;;2.85;1.77;;;8.00;99.90;;;;;;4441096;32;20617;-70
2022/01/30 13:06:07;;;;;;;10.38;0.65;;;8.00;99.90;;;;;;4442215;32;20103;-70
2022/01/30 13:08:51;;;;;;;1.10;0.90;;;8.00;99.90;;;;;;4441653;32;20053;-69
2022/01/30 13:11:19;;;;;;;0.45;0.45;;;7.90;99.90;;;;;;4441094;32;20122;-71
2022/01/30 13:13:56;;;;;;;1.10;0.70;;;7.80;99.90;;;;;;4442274;32;20068;-70
2022/01/30 13:16:25;;;;;;;1.30;1.20;;;7.90;99.90;;;;;;4439277;32;20581;-70
2022/01/30 13:18:50;;;;;;;1.05;1.05;;;7.90;99.90;;;;;;4442577;32;20359;-70
2022/01/30 13:21:22;;;;;;;1.80;1.65;;;7.80;99.90;;;;;;4442458;32;20145;-70
2022/01/30 13:23:48;;;;;;;1.27;0.68;;;7.80;99.90;;;;;;4441702;32;20133;-70
2022/01/30 13:26:28;;;;;;;2.65;1.35;;;7.80;99.90;;;;;;4440526;32;20920;-70
2022/01/30 13:28:53;;;;;;;1.23;1.12;;;7.70;99.90;;;;;;4442323;32;20068;-70
2022/01/30 13:31:19;;;;;;;0.65;0.65;;;7.80;99.90;;;;;;4442397;32;20116;-70
2022/01/30 13:33:44;;;;;;;1.15;1.05;;;7.80;99.90;;;;;;4442291;32;20076;-70
2022/01/30 13:36:22;;;;;;;4.95;0.82;;;7.80;99.90;;;;;;4442373;32;20069;-70